createdAt,value
2023-07-08T00:00:31.516Z,90.10
2023-07-08T00:03:00.253Z,90.20
2023-07-08T00:05:29.180Z,90.30
2023-07-08T00:07:57.869Z,90.30
2023-07-08T00:10:28.695Z,90.40
2023-07-08T00:13:00.478Z,90.50
2023-07-08T00:15:31.491Z,90.50
2023-07-08T00:18:00.454Z,90.50
2023-07-08T00:20:34.682Z,90.40
2023-07-08T00:23:03.433Z,90.60
2023-07-08T00:25:33.668Z,90.60
2023-07-08T00:28:03.972Z,90.70
2023-07-08T00:30:34.012Z,90.60
2023-07-08T00:33:02.798Z,90.70
2023-07-08T00:35:35.031Z,90.80
2023-07-08T00:38:04.752Z,90.90
2023-07-08T00:40:35.513Z,91.00
2023-07-08T00:43:08.317Z,91.00
2023-07-08T00:46:01.013Z,91.00
2023-07-08T00:48:36.394Z,91.10
2023-07-08T00:51:05.272Z,91.10
2023-07-08T00:53:35.406Z,91.10
2023-07-08T00:56:08.081Z,91.20
2023-07-08T00:58:44.966Z,91.20
2023-07-08T01:01:14.445Z,91.20
2023-07-08T01:03:50.425Z,91.30
2023-07-08T01:06:20.949Z,91.30
2023-07-08T01:08:54.876Z,91.40
2023-07-08T01:11:24.176Z,91.50
2023-07-08T01:13:54.829Z,91.50
2023-07-08T01:16:24.764Z,91.60
2023-07-08T01:18:55.089Z,91.60
2023-07-08T01:21:33.854Z,91.60
2023-07-08T01:24:07.152Z,91.70
2023-07-08T01:26:39.558Z,91.70
2023-07-08T01:29:08.755Z,91.70
2023-07-08T01:31:37.933Z,91.80
2023-07-08T01:34:07.636Z,91.80
2023-07-08T01:36:47.613Z,91.80
2023-07-08T01:39:22.778Z,91.90
2023-07-08T01:41:52.118Z,91.90
2023-07-08T01:44:28.907Z,91.90
2023-07-08T01:47:00.158Z,92.00
2023-07-08T01:49:29.652Z,92.10
2023-07-08T01:51:59.384Z,92.10
2023-07-08T01:54:30.264Z,92.20
2023-07-08T01:56:59.869Z,92.20
2023-07-08T01:59:28.852Z,92.20
2023-07-08T02:01:58.463Z,92.30
2023-07-08T02:04:31.495Z,92.30
2023-07-08T02:07:03.337Z,92.40
2023-07-08T02:09:34.269Z,92.30
2023-07-08T02:12:02.985Z,92.40
2023-07-08T02:14:31.836Z,92.40
2023-07-08T02:17:00.580Z,92.40
2023-07-08T02:19:29.905Z,92.50
2023-07-08T02:21:59.014Z,92.50
2023-07-08T02:24:28.036Z,92.50
2023-07-08T02:26:58.617Z,92.60
2023-07-08T02:29:27.679Z,92.60
2023-07-08T02:31:58.057Z,92.70
2023-07-08T02:34:26.756Z,92.70
2023-07-08T02:36:57.410Z,92.70
2023-07-08T02:39:26.419Z,92.70
2023-07-08T02:41:55.571Z,92.70
2023-07-08T02:44:27.704Z,92.70
2023-07-08T02:46:56.726Z,92.80
2023-07-08T02:49:25.548Z,92.80
2023-07-08T02:51:54.497Z,92.90
2023-07-08T02:54:23.158Z,92.80
2023-07-08T02:56:52.008Z,92.90
2023-07-08T02:59:20.860Z,93.00
2023-07-08T03:01:51.401Z,93.10
2023-07-08T03:04:23.161Z,93.10
2023-07-08T03:06:53.017Z,93.10
2023-07-08T03:09:21.891Z,93.50
2023-07-08T03:11:50.941Z,93.20
2023-07-08T03:14:19.648Z,93.30
2023-07-08T03:16:48.485Z,93.30
2023-07-08T03:19:18.680Z,93.30
2023-07-08T03:21:47.587Z,93.30
2023-07-08T03:24:19.379Z,93.30
2023-07-08T03:26:49.670Z,93.30
2023-07-08T03:29:20.818Z,93.40
2023-07-08T03:31:50.383Z,93.40
2023-07-08T03:34:20.804Z,93.50
2023-07-08T03:36:52.092Z,93.50
2023-07-08T03:39:23.872Z,93.60
2023-07-08T03:41:55.525Z,93.60
2023-07-08T03:44:24.340Z,93.70
2023-07-08T03:46:53.475Z,93.60
2023-07-08T03:49:25.363Z,93.70
2023-07-08T03:51:57.195Z,93.70
2023-07-08T03:54:27.342Z,93.70
2023-07-08T03:56:59.876Z,93.90
2023-07-08T03:59:29.984Z,93.80
2023-07-08T04:02:00.713Z,93.90
2023-07-08T04:04:32.736Z,93.90
2023-07-08T04:07:01.430Z,94.00
2023-07-08T04:09:30.202Z,94.10
2023-07-08T04:11:59.078Z,94.20
2023-07-08T04:14:27.863Z,94.20
2023-07-08T04:16:59.991Z,94.30
2023-07-08T04:19:29.331Z,94.40
2023-07-08T04:21:59.438Z,94.50
2023-07-08T04:24:28.247Z,94.60
2023-07-08T04:26:57.369Z,94.60
2023-07-08T04:29:26.143Z,94.80
2023-07-08T04:31:54.882Z,94.90
2023-07-08T04:34:23.736Z,95.00
2023-07-08T04:36:52.834Z,95.10
2023-07-08T04:39:22.966Z,95.10
2023-07-08T04:41:51.681Z,95.30
2023-07-08T04:44:20.843Z,95.40
2023-07-08T04:46:54.427Z,95.50
2023-07-08T04:49:24.079Z,95.70
2023-07-08T04:51:53.652Z,95.80
2023-07-08T04:54:23.903Z,95.90
2023-07-08T04:56:54.009Z,96.00
2023-07-08T04:59:24.920Z,96.20
2023-07-08T05:01:54.843Z,96.30
2023-07-08T05:04:24.945Z,96.40
2023-07-08T05:06:54.050Z,96.50
2023-07-08T05:09:27.464Z,96.60
2023-07-08T05:11:56.193Z,96.80
2023-07-08T05:14:24.996Z,96.90
2023-07-08T05:16:53.708Z,97.00
2023-07-08T05:19:23.549Z,97.10
2023-07-08T05:21:52.340Z,97.20
2023-07-08T05:24:21.431Z,97.30
2023-07-08T05:26:51.503Z,97.50
2023-07-08T05:29:20.289Z,97.60
2023-07-08T05:31:49.017Z,97.60
2023-07-08T05:34:18.137Z,97.90
2023-07-08T05:36:46.853Z,98.00
2023-07-08T05:39:15.980Z,98.10
2023-07-08T05:41:44.689Z,98.30
2023-07-08T05:44:15.096Z,98.40
2023-07-08T05:46:43.872Z,98.60
2023-07-08T05:49:12.754Z,98.70
2023-07-08T05:51:41.740Z,98.80
2023-07-08T05:54:10.653Z,99.00
2023-07-08T05:56:39.413Z,99.10
2023-07-08T05:59:08.369Z,99.30
2023-07-08T06:01:38.860Z,99.90
2023-07-08T06:04:07.850Z,99.90
2023-07-08T06:06:36.676Z,99.90
2023-07-08T06:09:05.908Z,99.90
2023-07-08T06:11:34.713Z,99.90
2023-07-08T06:14:04.289Z,99.90
2023-07-08T06:16:40.910Z,99.90
2023-07-08T06:19:12.237Z,99.90
2023-07-08T06:21:41.088Z,99.90
2023-07-08T06:24:09.866Z,99.90
2023-07-08T06:26:38.628Z,99.90
2023-07-08T06:29:07.541Z,99.90
2023-07-08T06:31:36.333Z,99.90
2023-07-08T06:34:08.216Z,99.90
2023-07-08T06:36:38.643Z,99.90
2023-07-08T06:39:09.832Z,99.90
2023-07-08T06:41:38.723Z,99.90
2023-07-08T06:44:07.565Z,99.90
2023-07-08T06:46:36.680Z,99.90
2023-07-08T06:49:09.734Z,99.90
2023-07-08T06:51:40.691Z,99.90
2023-07-08T06:54:12.423Z,99.90
2023-07-08T06:56:42.189Z,99.90
2023-07-08T06:59:11.577Z,99.90
2023-07-08T07:01:40.285Z,99.90
2023-07-08T07:04:09.124Z,99.90
2023-07-08T07:06:39.312Z,99.90
2023-07-08T07:09:08.472Z,99.90
2023-07-08T07:11:37.464Z,99.90
2023-07-08T07:14:46.700Z,99.90
2023-07-08T07:17:07.216Z,99.90
2023-07-08T07:19:37.635Z,99.90
2023-07-08T07:22:09.002Z,99.90
2023-07-08T07:24:37.795Z,99.90
2023-07-08T07:27:07.398Z,99.90
2023-07-08T07:29:43.153Z,99.90
2023-07-08T07:32:12.368Z,99.90
2023-07-08T07:34:41.571Z,99.90
2023-07-08T07:37:15.072Z,99.90
2023-07-08T07:39:44.570Z,99.90
2023-07-08T07:42:17.449Z,99.90
2023-07-08T07:44:47.048Z,99.90
2023-07-08T07:47:16.732Z,99.90
2023-07-08T07:49:45.751Z,99.90
2023-07-08T07:52:19.629Z,99.90
2023-07-08T07:54:48.628Z,99.90
2023-07-08T07:57:17.332Z,99.90
2023-07-08T07:59:46.543Z,99.90
2023-07-08T08:02:15.389Z,99.90
2023-07-08T08:04:44.548Z,99.90
2023-07-08T08:07:13.213Z,99.90
2023-07-08T08:09:43.519Z,99.90
2023-07-08T08:12:13.648Z,99.90
2023-07-08T08:14:42.771Z,99.90
2023-07-08T08:17:11.702Z,99.90
2023-07-08T08:19:40.987Z,99.90
2023-07-08T08:22:09.776Z,99.90
2023-07-08T08:24:39.157Z,99.90
2023-07-08T08:27:09.283Z,99.90
2023-07-08T08:29:37.941Z,99.90
2023-07-08T08:32:06.889Z,99.90
2023-07-08T08:34:35.574Z,99.90
2023-07-08T08:37:04.655Z,99.90
2023-07-08T08:39:33.753Z,99.90
2023-07-08T08:42:03.628Z,99.90
2023-07-08T08:44:37.648Z,99.90
2023-07-08T08:47:14.948Z,99.90
2023-07-08T08:49:48.630Z,99.90
2023-07-08T08:52:17.835Z,99.90
2023-07-08T08:54:46.625Z,99.90
2023-07-08T08:57:24.667Z,99.90
2023-07-08T08:59:57.766Z,99.90
2023-07-08T09:02:33.723Z,99.90
2023-07-08T09:05:06.362Z,99.90
2023-07-08T09:07:41.592Z,99.90
2023-07-08T09:10:22.638Z,99.90
2023-07-08T09:12:55.650Z,99.90
2023-07-08T09:15:28.780Z,99.90
2023-07-08T09:18:05.628Z,99.90
2023-07-08T09:20:37.682Z,99.90
2023-07-08T09:23:19.670Z,99.90
2023-07-08T09:25:52.601Z,99.90
2023-07-08T09:28:21.669Z,99.80
2023-07-08T09:30:55.635Z,99.70
2023-07-08T09:33:27.240Z,99.50
2023-07-08T09:35:56.173Z,99.40
2023-07-08T09:38:25.369Z,99.30
2023-07-08T09:40:57.465Z,99.10
2023-07-08T09:43:28.916Z,99.00
2023-07-08T09:46:01.707Z,99.00
2023-07-08T09:48:35.734Z,99.30
2023-07-08T09:51:05.815Z,98.90
2023-07-08T09:53:36.012Z,98.70
2023-07-08T09:56:06.439Z,98.40
2023-07-08T09:58:38.837Z,98.30
2023-07-08T10:01:14.893Z,98.10
2023-07-08T10:03:44.506Z,97.90
2023-07-08T10:06:20.219Z,98.00
2023-07-08T10:08:49.123Z,97.90
2023-07-08T10:11:28.956Z,97.70
2023-07-08T10:14:12.464Z,97.70
2023-07-08T10:16:44.010Z,97.60
2023-07-08T10:19:17.720Z,97.50
2023-07-08T10:21:53.946Z,97.40
2023-07-08T10:24:42.657Z,97.40
2023-07-08T10:27:22.068Z,97.30
2023-07-08T10:29:56.199Z,97.20
2023-07-08T10:32:36.470Z,97.20
2023-07-08T10:35:14.889Z,97.10
2023-07-08T10:37:57.946Z,97.00
2023-07-08T10:40:36.596Z,96.90
2023-07-08T10:43:32.937Z,96.80
2023-07-08T10:46:19.376Z,96.70
2023-07-08T10:49:07.694Z,96.40
2023-07-08T10:51:43.208Z,96.40
2023-07-08T10:54:27.756Z,96.20
2023-07-08T10:57:02.517Z,96.60
2023-07-08T10:59:46.173Z,95.90
2023-07-08T11:02:31.320Z,95.90
2023-07-08T11:05:12.736Z,95.90
2023-07-08T11:07:47.946Z,95.80
2023-07-08T11:10:22.406Z,95.80
2023-07-08T11:12:56.216Z,95.90
2023-07-08T11:15:31.929Z,95.90
2023-07-08T11:18:08.745Z,95.90
2023-07-08T11:20:45.894Z,95.70
2023-07-08T11:23:25.952Z,95.60
2023-07-08T11:26:02.906Z,95.50
2023-07-08T11:28:31.586Z,95.00
2023-07-08T11:31:03.651Z,94.80
2023-07-08T11:33:36.110Z,94.90
2023-07-08T11:36:07.374Z,94.80
2023-07-08T11:38:36.388Z,94.70
2023-07-08T11:41:13.359Z,94.30
2023-07-08T11:43:48.009Z,94.30
2023-07-08T11:46:20.427Z,94.00
2023-07-08T11:48:52.443Z,93.90
2023-07-08T11:51:25.790Z,93.70
2023-07-08T11:54:02.930Z,93.70
2023-07-08T11:56:50.389Z,93.40
2023-07-08T11:59:21.081Z,93.40
2023-07-08T12:01:54.733Z,93.00
2023-07-08T12:04:30.178Z,93.00
2023-07-08T12:07:21.548Z,92.80
2023-07-08T12:10:00.502Z,92.60
2023-07-08T12:12:34.212Z,92.80
2023-07-08T12:15:12.316Z,92.30
2023-07-08T12:17:41.938Z,92.10
2023-07-08T12:20:20.581Z,91.90
2023-07-08T12:22:52.494Z,91.90
2023-07-08T12:25:24.546Z,91.50
2023-07-08T12:27:53.285Z,91.10
2023-07-08T12:30:22.467Z,90.80
2023-07-08T12:32:52.099Z,90.60
2023-07-08T12:35:25.309Z,90.30
2023-07-08T12:38:00.468Z,90.10
2023-07-08T12:40:30.743Z,90.00
2023-07-08T12:43:01.855Z,89.60
2023-07-08T12:45:32.937Z,89.10
2023-07-08T12:48:01.726Z,88.60
2023-07-08T12:50:30.512Z,88.60
2023-07-08T12:53:05.648Z,87.60
2023-07-08T12:55:35.661Z,87.00
2023-07-08T12:58:04.826Z,86.70
2023-07-08T13:00:39.003Z,86.30
2023-07-08T13:03:10.400Z,85.80
2023-07-08T13:05:40.093Z,85.50
2023-07-08T13:08:13.426Z,85.40
2023-07-08T13:10:43.548Z,85.00
2023-07-08T13:13:19.111Z,84.90
2023-07-08T13:15:49.690Z,84.70
2023-07-08T13:18:20.255Z,84.20
2023-07-08T13:20:54.054Z,83.90
2023-07-08T13:23:24.961Z,83.80
2023-07-08T13:25:55.916Z,83.50
2023-07-08T13:28:27.835Z,83.30
2023-07-08T13:30:58.769Z,83.30
2023-07-08T13:33:32.631Z,82.80
2023-07-08T13:36:04.600Z,82.40
2023-07-08T13:38:39.949Z,82.10
2023-07-08T13:41:11.097Z,82.10
2023-07-08T13:43:42.349Z,81.70
2023-07-08T13:46:32.938Z,82.30
2023-07-08T13:49:05.119Z,81.50
2023-07-08T13:51:35.155Z,81.10
2023-07-08T13:54:17.201Z,80.80
2023-07-08T13:56:46.026Z,80.90
2023-07-08T13:59:21.486Z,80.50
2023-07-08T14:01:52.761Z,80.60
2023-07-08T14:04:23.520Z,81.10
2023-07-08T14:06:52.364Z,80.00
2023-07-08T14:09:24.507Z,79.70
2023-07-08T14:11:54.402Z,79.70
2023-07-08T14:14:23.173Z,79.60
2023-07-08T14:16:54.629Z,79.50
2023-07-08T14:19:27.052Z,79.30
2023-07-08T14:21:58.320Z,79.10
2023-07-08T14:24:28.856Z,78.90
2023-07-08T14:26:58.127Z,78.60
2023-07-08T14:29:26.918Z,78.60
2023-07-08T14:31:55.830Z,78.40
2023-07-08T14:34:27.689Z,78.40
2023-07-08T14:36:56.636Z,78.40
2023-07-08T14:39:25.425Z,78.00
2023-07-08T14:41:55.858Z,78.10
2023-07-08T14:44:33.879Z,78.80
2023-07-08T14:47:02.944Z,78.00
2023-07-08T14:49:31.838Z,77.90
2023-07-08T14:52:01.350Z,77.70
2023-07-08T14:54:30.226Z,77.70
2023-07-08T14:57:01.874Z,77.70
2023-07-08T14:59:34.150Z,77.60
2023-07-08T15:02:17.355Z,77.60
2023-07-08T15:04:46.163Z,77.60
2023-07-08T15:07:14.952Z,77.10
2023-07-08T15:09:43.724Z,77.30
2023-07-08T15:12:14.710Z,77.20
2023-07-08T15:14:44.010Z,77.20
2023-07-08T15:17:18.027Z,77.00
2023-07-08T15:19:47.123Z,77.30
2023-07-08T15:22:15.958Z,77.90
2023-07-08T15:24:45.266Z,77.20
2023-07-08T15:27:16.177Z,77.10
2023-07-08T15:29:47.506Z,77.10
2023-07-08T15:32:38.729Z,77.10
2023-07-08T15:35:22.086Z,77.10
2023-07-08T15:37:51.045Z,77.10
2023-07-08T15:40:23.476Z,77.00
2023-07-08T15:42:57.117Z,77.10
2023-07-08T15:45:27.448Z,76.90
2023-07-08T15:47:56.751Z,76.80
2023-07-08T15:50:28.267Z,76.80
2023-07-08T15:52:57.962Z,76.70
2023-07-08T15:55:30.024Z,77.30
2023-07-08T15:58:03.743Z,76.60
2023-07-08T16:00:36.307Z,76.50
2023-07-08T16:03:14.666Z,76.30
2023-07-08T16:05:43.467Z,76.50
2023-07-08T16:08:12.395Z,76.40
2023-07-08T16:10:41.237Z,76.30
2023-07-08T16:13:13.929Z,76.40
2023-07-08T16:15:43.676Z,76.40
2023-07-08T16:18:13.983Z,76.30
2023-07-08T16:20:43.062Z,76.40
2023-07-08T16:23:11.941Z,76.20
2023-07-08T16:25:43.520Z,76.30
2023-07-08T16:28:20.123Z,76.50
2023-07-08T16:30:50.718Z,77.00
2023-07-08T16:33:20.008Z,76.70
2023-07-08T16:35:48.731Z,76.50
2023-07-08T16:38:18.646Z,76.40
2023-07-08T16:40:47.496Z,76.50
2023-07-08T16:43:26.873Z,76.50
2023-07-08T16:45:56.880Z,76.40
2023-07-08T16:48:25.912Z,76.20
2023-07-08T16:50:55.254Z,76.20
2023-07-08T16:53:24.210Z,76.50
2023-07-08T16:55:53.117Z,76.30
2023-07-08T16:58:23.455Z,76.80
2023-07-08T17:00:52.609Z,77.30
2023-07-08T17:03:21.535Z,77.30
2023-07-08T17:05:50.523Z,77.60
2023-07-08T17:08:19.251Z,77.60
2023-07-08T17:10:48.238Z,78.00
2023-07-08T17:13:17.130Z,78.10
2023-07-08T17:15:47.500Z,78.10
2023-07-08T17:18:22.882Z,78.00
2023-07-08T17:20:53.781Z,78.40
2023-07-08T17:23:24.082Z,78.30
2023-07-08T17:25:52.916Z,78.70
2023-07-08T17:28:21.728Z,78.50
2023-07-08T17:30:55.736Z,78.40
2023-07-08T17:33:25.970Z,78.40
2023-07-08T17:35:55.748Z,78.20
2023-07-08T17:38:47.645Z,77.80
2023-07-08T17:41:19.273Z,78.20
2023-07-08T17:43:48.944Z,78.40
2023-07-08T17:46:21.625Z,78.50
2023-07-08T17:48:51.610Z,78.70
2023-07-08T17:51:22.088Z,78.90
2023-07-08T17:53:51.637Z,79.20
2023-07-08T17:56:23.217Z,78.70
2023-07-08T17:58:54.230Z,79.10
2023-07-08T18:01:25.813Z,79.30
2023-07-08T18:03:55.272Z,79.40
2023-07-08T18:06:24.689Z,79.60
2023-07-08T18:08:53.652Z,79.60
2023-07-08T18:11:25.638Z,79.80
2023-07-08T18:13:55.245Z,80.30
2023-07-08T18:16:25.915Z,80.50
2023-07-08T18:18:55.049Z,80.30
2023-07-08T18:21:25.947Z,79.80
2023-07-08T18:23:56.854Z,79.80
2023-07-08T18:26:28.073Z,80.10
2023-07-08T18:28:57.325Z,80.30
2023-07-08T18:31:31.525Z,80.30
2023-07-08T18:34:02.193Z,80.40
2023-07-08T18:36:31.426Z,80.50
2023-07-08T18:39:00.481Z,80.60
2023-07-08T18:41:32.491Z,80.70
2023-07-08T18:44:01.461Z,80.80
2023-07-08T18:46:31.857Z,81.10
2023-07-08T18:49:04.170Z,80.90
2023-07-08T18:51:41.833Z,81.00
2023-07-08T18:54:16.576Z,81.00
2023-07-08T18:56:45.601Z,81.20
2023-07-08T18:59:14.595Z,81.10
2023-07-08T19:01:47.848Z,81.20
2023-07-08T19:04:24.059Z,81.20
2023-07-08T19:06:54.691Z,81.30
2023-07-08T19:09:23.627Z,81.50
2023-07-08T19:11:52.471Z,81.50
2023-07-08T19:14:21.248Z,81.50
2023-07-08T19:16:51.616Z,81.70
2023-07-08T19:19:21.421Z,81.80
2023-07-08T19:21:51.173Z,81.80
2023-07-08T19:24:32.120Z,82.20
2023-07-08T19:27:06.198Z,82.20
2023-07-08T19:29:35.090Z,82.50
2023-07-08T19:32:06.111Z,82.70
2023-07-08T19:34:36.273Z,83.10
2023-07-08T19:37:05.510Z,83.20
2023-07-08T19:39:34.688Z,83.30
2023-07-08T19:42:04.059Z,83.20
2023-07-08T19:44:32.948Z,83.50
2023-07-08T19:47:01.808Z,83.60
2023-07-08T19:49:32.102Z,84.60
2023-07-08T19:52:01.089Z,84.00
2023-07-08T19:54:31.294Z,84.20
2023-07-08T19:57:01.386Z,84.20
2023-07-08T19:59:31.077Z,84.50
2023-07-08T20:02:02.753Z,84.70
2023-07-08T20:04:33.081Z,84.80
2023-07-08T20:07:02.089Z,85.00
2023-07-08T20:09:31.068Z,85.30
2023-07-08T20:11:59.957Z,85.50
2023-07-08T20:14:28.738Z,85.50
2023-07-08T20:16:57.643Z,85.70
2023-07-08T20:19:29.064Z,85.90
2023-07-08T20:21:59.696Z,86.10
2023-07-08T20:24:28.449Z,86.40
2023-07-08T20:26:57.661Z,86.80
2023-07-08T20:29:26.564Z,87.00
2023-07-08T20:31:55.388Z,87.10
2023-07-08T20:34:24.372Z,87.40
2023-07-08T20:36:53.470Z,87.50
2023-07-08T20:39:29.047Z,87.70
2023-07-08T20:41:57.967Z,88.00
2023-07-08T20:44:27.054Z,88.00
2023-07-08T20:46:55.917Z,88.90
2023-07-08T20:49:24.944Z,88.40
2023-07-08T20:51:53.777Z,88.60
2023-07-08T20:54:24.153Z,88.80
2023-07-08T20:56:52.928Z,89.00
2023-07-08T20:59:23.874Z,89.10
2023-07-08T21:01:56.431Z,89.40
2023-07-08T21:04:25.297Z,89.60
2023-07-08T21:06:54.806Z,89.50
2023-07-08T21:09:25.455Z,89.70
2023-07-08T21:11:54.262Z,90.00
2023-07-08T21:14:24.467Z,90.00
2023-07-08T21:16:53.457Z,90.10
2023-07-08T21:19:22.716Z,90.50
2023-07-08T21:21:52.169Z,90.30
2023-07-08T21:24:21.032Z,90.40
2023-07-08T21:26:51.592Z,90.50
2023-07-08T21:29:20.418Z,90.60
2023-07-08T21:31:49.268Z,90.60
2023-07-08T21:34:18.113Z,90.80
2023-07-08T21:36:48.226Z,90.90
2023-07-08T21:39:24.305Z,91.00
2023-07-08T21:41:54.625Z,91.10
2023-07-08T21:44:23.560Z,91.10
2023-07-08T21:46:52.613Z,91.20
2023-07-08T21:49:21.597Z,91.30
2023-07-08T21:51:50.678Z,91.40
2023-07-08T21:54:19.976Z,91.50
2023-07-08T21:56:48.730Z,91.60
2023-07-08T21:59:22.823Z,91.70
2023-07-08T22:01:52.373Z,91.70
2023-07-08T22:04:23.571Z,91.80
2023-07-08T22:06:53.703Z,92.00
2023-07-08T22:09:22.512Z,92.00
2023-07-08T22:11:51.261Z,92.00
2023-07-08T22:14:23.638Z,92.10
2023-07-08T22:17:09.206Z,92.20
2023-07-08T22:19:39.488Z,92.10
2023-07-08T22:22:11.935Z,92.30
2023-07-08T22:24:40.769Z,92.50
2023-07-08T22:27:10.645Z,92.60
2023-07-08T22:29:40.999Z,95.80
2023-07-08T22:32:11.806Z,94.10
2023-07-08T22:34:40.616Z,93.90
2023-07-08T22:37:13.147Z,93.70
2023-07-08T22:39:42.007Z,93.80
2023-07-08T22:42:12.747Z,93.80
2023-07-08T22:44:42.846Z,93.90
2023-07-08T22:47:13.879Z,94.00
2023-07-08T22:49:42.782Z,93.90
2023-07-08T22:52:28.311Z,93.90
2023-07-08T22:54:57.578Z,94.10
2023-07-08T22:57:26.550Z,94.10
2023-07-08T22:59:56.955Z,94.20
2023-07-08T23:02:25.714Z,94.20
2023-07-08T23:04:55.915Z,94.30
2023-07-08T23:07:24.787Z,94.30
2023-07-08T23:09:53.659Z,94.40
2023-07-08T23:12:22.826Z,94.50
2023-07-08T23:14:51.843Z,94.70
2023-07-08T23:17:22.695Z,94.70
2023-07-08T23:19:51.598Z,94.80
2023-07-08T23:22:22.845Z,94.80
2023-07-08T23:24:51.651Z,95.00
2023-07-08T23:27:24.710Z,95.00
2023-07-08T23:29:53.544Z,95.10
2023-07-08T23:32:25.078Z,95.10
2023-07-08T23:34:54.066Z,95.30
2023-07-08T23:37:31.001Z,95.20
2023-07-08T23:40:00.438Z,95.40
2023-07-08T23:42:29.220Z,95.40
2023-07-08T23:44:57.954Z,95.60
2023-07-08T23:47:28.826Z,95.60
2023-07-08T23:49:58.231Z,95.70
2023-07-08T23:52:27.150Z,95.80
2023-07-08T23:54:55.972Z,95.90
2023-07-08T23:57:25.492Z,96.00
2023-07-08T23:59:57.116Z,96.10
